sensor_id;sensor_type;location;lat;lon;timestamp;pressure;altitude;pressure_sealevel;temperature;humidity
15229;BME280;7717;47.792;12.076;2024-03-23T00:55:36;95606.69;;;8.28;94.57
15229;BME280;7717;47.792;12.076;2024-03-23T00:58:01;95620.22;;;8.09;95.27
15229;BME280;7717;47.792;12.076;2024-03-23T01:00:26;95615.84;;;7.93;98.19
15229;BME280;7717;47.792;12.076;2024-03-23T01:02:52;95613.63;;;8.21;97.44
15229;BME280;7717;47.792;12.076;2024-03-23T01:05:17;95578.94;;;8.18;94.91
15229;BME280;7717;47.792;12.076;2024-03-23T01:07:42;95603.94;;;8.14;95.33
15229;BME280;7717;47.792;12.076;2024-03-23T01:10:08;95590.66;;;8.15;96.05
15229;BME280;7717;47.792;12.076;2024-03-23T01:12:33;95593.94;;;8.17;95.71
15229;BME280;7717;47.792;12.076;2024-03-23T01:14:59;95572.13;;;8.01;94.88
15229;BME280;7717;47.792;12.076;2024-03-23T01:17:24;95585.13;;;8.02;95.20
15229;BME280;7717;47.792;12.076;2024-03-23T01:19:50;95593.53;;;8.36;92.63
15229;BME280;7717;47.792;12.076;2024-03-23T01:22:15;95583.59;;;8.47;92.21
15229;BME280;7717;47.792;12.076;2024-03-23T01:24:40;95585.34;;;8.85;89.75
15229;BME280;7717;47.792;12.076;2024-03-23T01:27:06;95571.13;;;8.49;89.66
15229;BME280;7717;47.792;12.076;2024-03-23T01:29:31;95553.13;;;8.38;91.26
15229;BME280;7717;47.792;12.076;2024-03-23T01:31:57;95575.06;;;8.45;92.36
15229;BME280;7717;47.792;12.076;2024-03-23T01:34:22;95572.09;;;8.17;93.78
15229;BME280;7717;47.792;12.076;2024-03-23T01:36:47;95575.41;;;8.11;93.53
15229;BME280;7717;47.792;12.076;2024-03-23T01:39:13;95572.50;;;8.36;94.05
15229;BME280;7717;47.792;12.076;2024-03-23T01:41:39;95568.56;;;8.24;96.27
15229;BME280;7717;47.792;12.076;2024-03-23T01:44:08;95569.06;;;8.59;90.67
15229;BME280;7717;47.792;12.076;2024-03-23T01:46:34;95554.63;;;8.77;91.75
15229;BME280;7717;47.792;12.076;2024-03-23T01:48:59;95563.53;;;8.54;90.56
15229;BME280;7717;47.792;12.076;2024-03-23T01:51:26;95561.84;;;8.61;89.39
15229;BME280;7717;47.792;12.076;2024-03-23T01:53:52;95559.31;;;8.67;91.50
15229;BME280;7717;47.792;12.076;2024-03-23T01:56:20;95534.19;;;8.42;89.73
15229;BME280;7717;47.792;12.076;2024-03-23T01:58:45;95555.94;;;8.20;92.78
15229;BME280;7717;47.792;12.076;2024-03-23T02:01:10;95550.41;;;8.46;90.48
15229;BME280;7717;47.792;12.076;2024-03-23T02:03:36;95526.75;;;8.46;90.35
15229;BME280;7717;47.792;12.076;2024-03-23T02:06:02;95539.09;;;8.68;89.95
15229;BME280;7717;47.792;12.076;2024-03-23T02:08:27;95529.06;;;9.09;86.05
15229;BME280;7717;47.792;12.076;2024-03-23T02:10:53;95531.16;;;9.13;86.15
15229;BME280;7717;47.792;12.076;2024-03-23T02:13:19;95537.00;;;9.24;83.96
15229;BME280;7717;47.792;12.076;2024-03-23T02:15:45;95520.34;;;9.08;84.64
15229;BME280;7717;47.792;12.076;2024-03-23T02:18:10;95522.66;;;9.26;84.08
15229;BME280;7717;47.792;12.076;2024-03-23T02:20:37;95509.84;;;9.38;84.27
15229;BME280;7717;47.792;12.076;2024-03-23T02:23:03;95518.22;;;9.71;80.75
15229;BME280;7717;47.792;12.076;2024-03-23T02:25:31;95520.31;;;9.61;82.44
15229;BME280;7717;47.792;12.076;2024-03-23T02:27:56;95503.06;;;9.58;80.25
15229;BME280;7717;47.792;12.076;2024-03-23T02:30:24;95516.78;;;9.68;82.34
15229;BME280;7717;47.792;12.076;2024-03-23T02:32:49;95504.78;;;9.80;79.07
15229;BME280;7717;47.792;12.076;2024-03-23T02:35:14;95502.13;;;9.95;79.13
15229;BME280;7717;47.792;12.076;2024-03-23T02:37:40;95503.47;;;10.06;76.56
15229;BME280;7717;47.792;12.076;2024-03-23T02:40:05;95491.13;;;9.91;77.72
15229;BME280;7717;47.792;12.076;2024-03-23T02:42:31;95454.56;;;9.52;80.26
15229;BME280;7717;47.792;12.076;2024-03-23T02:44:57;95497.59;;;9.74;79.29
15229;BME280;7717;47.792;12.076;2024-03-23T02:47:23;95502.06;;;9.88;76.48
15229;BME280;7717;47.792;12.076;2024-03-23T02:49:48;95499.41;;;9.88;77.43
15229;BME280;7717;47.792;12.076;2024-03-23T02:52:13;95492.69;;;9.86;78.83
15229;BME280;7717;47.792;12.076;2024-03-23T02:54:39;95500.16;;;9.68;79.73
15229;BME280;7717;47.792;12.076;2024-03-23T02:57:04;95485.09;;;9.62;78.29
15229;BME280;7717;47.792;12.076;2024-03-23T02:59:30;95490.25;;;9.55;77.84
15229;BME280;7717;47.792;12.076;2024-03-23T03:01:55;95473.38;;;9.35;79.54
15229;BME280;7717;47.792;12.076;2024-03-23T03:04:21;95485.69;;;9.20;80.79
15229;BME280;7717;47.792;12.076;2024-03-23T03:06:49;95453.38;;;8.96;80.54
15229;BME280;7717;47.792;12.076;2024-03-23T03:09:14;95483.84;;;9.05;80.49
15229;BME280;7717;47.792;12.076;2024-03-23T03:11:40;95481.22;;;9.05;83.91
15229;BME280;7717;47.792;12.076;2024-03-23T03:14:05;95485.38;;;9.37;79.75
15229;BME280;7717;47.792;12.076;2024-03-23T03:16:33;95474.09;;;9.29;80.36
15229;BME280;7717;47.792;12.076;2024-03-23T03:18:58;95487.06;;;9.45;79.18
15229;BME280;7717;47.792;12.076;2024-03-23T03:21:23;95473.06;;;9.44;79.61
15229;BME280;7717;47.792;12.076;2024-03-23T03:23:49;95474.63;;;9.39;80.69
15229;BME280;7717;47.792;12.076;2024-03-23T03:26:16;95457.47;;;9.28;80.06
15229;BME280;7717;47.792;12.076;2024-03-23T03:28:42;95473.72;;;9.32;80.62
15229;BME280;7717;47.792;12.076;2024-03-23T03:31:09;95468.72;;;9.22;81.61
15229;BME280;7717;47.792;12.076;2024-03-23T03:33:34;95456.56;;;9.21;81.08
15229;BME280;7717;47.792;12.076;2024-03-23T03:36:00;95460.44;;;9.25;81.36
15229;BME280;7717;47.792;12.076;2024-03-23T03:38:25;95459.00;;;9.08;83.55
15229;BME280;7717;47.792;12.076;2024-03-23T03:40:50;95453.00;;;8.99;83.18
15229;BME280;7717;47.792;12.076;2024-03-23T03:43:16;95447.91;;;8.98;83.25
15229;BME280;7717;47.792;12.076;2024-03-23T03:45:41;95395.22;;;8.54;84.64
15229;BME280;7717;47.792;12.076;2024-03-23T03:48:07;95425.19;;;8.67;84.33
15229;BME280;7717;47.792;12.076;2024-03-23T03:50:33;95440.28;;;8.88;83.10
15229;BME280;7717;47.792;12.076;2024-03-23T03:52:58;95440.00;;;8.83;85.55
15229;BME280;7717;47.792;12.076;2024-03-23T03:55:23;95432.47;;;8.95;83.97
15229;BME280;7717;47.792;12.076;2024-03-23T03:57:49;95437.47;;;9.04;82.79
15229;BME280;7717;47.792;12.076;2024-03-23T04:00:14;95359.88;;;8.71;82.65
15229;BME280;7717;47.792;12.076;2024-03-23T04:02:41;95418.94;;;8.98;82.33
15229;BME280;7717;47.792;12.076;2024-03-23T04:05:06;95415.59;;;8.89;82.74
15229;BME280;7717;47.792;12.076;2024-03-23T04:07:33;95406.53;;;8.77;84.26
15229;BME280;7717;47.792;12.076;2024-03-23T04:09:58;95416.31;;;8.83;84.57
15229;BME280;7717;47.792;12.076;2024-03-23T04:12:24;95381.00;;;8.63;82.51
15229;BME280;7717;47.792;12.076;2024-03-23T04:14:49;95409.50;;;8.74;81.41
15229;BME280;7717;47.792;12.076;2024-03-23T04:17:14;95411.97;;;8.90;82.08
15229;BME280;7717;47.792;12.076;2024-03-23T04:19:40;95404.22;;;8.74;83.78
15229;BME280;7717;47.792;12.076;2024-03-23T04:22:06;95406.16;;;8.80;81.49
15229;BME280;7717;47.792;12.076;2024-03-23T04:24:31;95405.69;;;8.91;80.53
15229;BME280;7717;47.792;12.076;2024-03-23T04:26:56;95392.53;;;8.62;83.19
15229;BME280;7717;47.792;12.076;2024-03-23T04:29:22;95392.81;;;8.82;82.44
15229;BME280;7717;47.792;12.076;2024-03-23T04:31:48;95400.63;;;8.90;80.54
15229;BME280;7717;47.792;12.076;2024-03-23T04:34:13;95362.13;;;8.59;82.90
15229;BME280;7717;47.792;12.076;2024-03-23T04:36:39;95386.47;;;8.76;80.19
15229;BME280;7717;47.792;12.076;2024-03-23T04:39:05;95355.88;;;8.60;80.35
15229;BME280;7717;47.792;12.076;2024-03-23T04:41:34;95372.16;;;8.41;81.90
15229;BME280;7717;47.792;12.076;2024-03-23T04:43:59;95389.50;;;8.50;82.30
15229;BME280;7717;47.792;12.076;2024-03-23T04:46:24;95394.44;;;8.30;83.11
15229;BME280;7717;47.792;12.076;2024-03-23T04:48:50;95384.56;;;8.24;84.03
15229;BME280;7717;47.792;12.076;2024-03-23T04:51:23;95355.16;;;8.06;83.92
15229;BME280;7717;47.792;12.076;2024-03-23T04:53:49;95370.75;;;8.08;84.89
15229;BME280;7717;47.792;12.076;2024-03-23T04:56:17;95359.72;;;8.12;83.73
15229;BME280;7717;47.792;12.076;2024-03-23T04:58:43;95373.72;;;8.05;85.50
15229;BME280;7717;47.792;12.076;2024-03-23T05:01:10;95359.44;;;8.07;83.38
15229;BME280;7717;47.792;12.076;2024-03-23T05:03:36;95366.06;;;8.18;84.02
15229;BME280;7717;47.792;12.076;2024-03-23T05:06:01;95314.47;;;8.02;83.65
15229;BME280;7717;47.792;12.076;2024-03-23T05:08:26;95356.84;;;8.22;83.81
15229;BME280;7717;47.792;12.076;2024-03-23T05:10:52;95347.00;;;8.24;83.82
15229;BME280;7717;47.792;12.076;2024-03-23T05:13:17;95339.34;;;8.14;83.78
15229;BME280;7717;47.792;12.076;2024-03-23T05:15:43;95330.63;;;8.36;82.16
15229;BME280;7717;47.792;12.076;2024-03-23T05:18:08;95294.63;;;7.99;83.09
15229;BME280;7717;47.792;12.076;2024-03-23T05:20:33;95327.81;;;8.38;81.28
15229;BME280;7717;47.792;12.076;2024-03-23T05:22:59;95318.22;;;8.45;80.60
15229;BME280;7717;47.792;12.076;2024-03-23T05:25:24;95324.19;;;8.39;82.42
15229;BME280;7717;47.792;12.076;2024-03-23T05:27:49;95326.47;;;8.42;83.06
15229;BME280;7717;47.792;12.076;2024-03-23T05:30:14;95317.78;;;8.56;80.15
15229;BME280;7717;47.792;12.076;2024-03-23T05:32:40;95316.81;;;8.57;79.81
15229;BME280;7717;47.792;12.076;2024-03-23T05:35:09;95306.28;;;8.57;80.36
15229;BME280;7717;47.792;12.076;2024-03-23T05:37:35;95300.72;;;8.67;79.25
15229;BME280;7717;47.792;12.076;2024-03-23T05:40:00;95305.00;;;8.68;80.24
15229;BME280;7717;47.792;12.076;2024-03-23T05:42:25;95295.91;;;8.85;78.32
15229;BME280;7717;47.792;12.076;2024-03-23T05:44:51;95285.84;;;9.03;76.99
15229;BME280;7717;47.792;12.076;2024-03-23T05:47:16;95290.66;;;8.85;78.65
15229;BME280;7717;47.792;12.076;2024-03-23T05:49:42;95285.22;;;8.87;77.35
15229;BME280;7717;47.792;12.076;2024-03-23T05:52:08;95284.88;;;8.90;77.46
15229;BME280;7717;47.792;12.076;2024-03-23T05:54:33;95278.63;;;8.76;78.62
15229;BME280;7717;47.792;12.076;2024-03-23T05:56:59;95290.31;;;8.73;78.67
15229;BME280;7717;47.792;12.076;2024-03-23T05:59:24;95284.97;;;8.82;78.81
15229;BME280;7717;47.792;12.076;2024-03-23T06:01:49;95191.19;;;8.45;77.86
15229;BME280;7717;47.792;12.076;2024-03-23T06:04:15;95272.56;;;9.11;77.18
15229;BME280;7717;47.792;12.076;2024-03-23T06:06:40;95267.75;;;9.15;76.45
15229;BME280;7717;47.792;12.076;2024-03-23T06:09:05;95264.13;;;9.16;75.60
15229;BME280;7717;47.792;12.076;2024-03-23T06:11:31;95262.84;;;9.12;77.01
15229;BME280;7717;47.792;12.076;2024-03-23T06:13:56;95259.47;;;9.18;76.33
15229;BME280;7717;47.792;12.076;2024-03-23T06:16:21;95273.03;;;9.15;75.89
15229;BME280;7717;47.792;12.076;2024-03-23T06:18:50;95253.13;;;9.12;76.54
15229;BME280;7717;47.792;12.076;2024-03-23T06:21:15;95242.69;;;9.19;75.74
15229;BME280;7717;47.792;12.076;2024-03-23T06:23:41;95242.41;;;9.29;76.63
15229;BME280;7717;47.792;12.076;2024-03-23T06:26:06;95235.81;;;9.39;74.05
15229;BME280;7717;47.792;12.076;2024-03-23T06:28:31;95240.34;;;9.45;74.80
15229;BME280;7717;47.792;12.076;2024-03-23T06:30:57;95182.06;;;9.12;73.95
15229;BME280;7717;47.792;12.076;2024-03-23T06:33:22;95232.44;;;9.45;76.00
15229;BME280;7717;47.792;12.076;2024-03-23T06:35:51;95243.16;;;9.44;75.10
15229;BME280;7717;47.792;12.076;2024-03-23T06:38:17;95224.41;;;9.53;74.63
15229;BME280;7717;47.792;12.076;2024-03-23T06:40:42;95223.66;;;9.60;75.32
15229;BME280;7717;47.792;12.076;2024-03-23T06:43:12;95211.34;;;9.67;74.49
15229;BME280;7717;47.792;12.076;2024-03-23T06:45:37;95210.53;;;9.66;74.86
15229;BME280;7717;47.792;12.076;2024-03-23T06:48:02;95207.97;;;9.73;73.01
15229;BME280;7717;47.792;12.076;2024-03-23T06:50:28;95204.25;;;9.88;72.04
15229;BME280;7717;47.792;12.076;2024-03-23T06:52:53;95205.25;;;9.87;72.08
15229;BME280;7717;47.792;12.076;2024-03-23T06:55:19;95196.56;;;9.93;71.70
15229;BME280;7717;47.792;12.076;2024-03-23T06:57:44;95197.41;;;9.94;72.25
15229;BME280;7717;47.792;12.076;2024-03-23T07:00:09;95188.94;;;10.05;69.54
15229;BME280;7717;47.792;12.076;2024-03-23T07:02:35;95192.03;;;10.09;71.81
15229;BME280;7717;47.792;12.076;2024-03-23T07:05:00;95130.94;;;9.71;71.78
15229;BME280;7717;47.792;12.076;2024-03-23T07:07:26;95140.22;;;9.67;71.23
15229;BME280;7717;47.792;12.076;2024-03-23T07:09:52;95179.63;;;10.03;70.63
15229;BME280;7717;47.792;12.076;2024-03-23T07:12:17;95168.44;;;10.01;71.16
15229;BME280;7717;47.792;12.076;2024-03-23T07:14:43;95165.22;;;10.05;70.10
15229;BME280;7717;47.792;12.076;2024-03-23T07:17:08;95180.09;;;10.13;71.25
15229;BME280;7717;47.792;12.076;2024-03-23T07:19:33;95177.06;;;10.16;69.80
15229;BME280;7717;47.792;12.076;2024-03-23T07:21:58;95160.06;;;10.18;69.52
15229;BME280;7717;47.792;12.076;2024-03-23T07:24:24;95151.97;;;10.20;69.38
15229;BME280;7717;47.792;12.076;2024-03-23T07:26:49;95116.56;;;10.01;70.16
15229;BME280;7717;47.792;12.076;2024-03-23T07:29:16;95141.94;;;10.37;70.04
15229;BME280;7717;47.792;12.076;2024-03-23T07:31:41;95138.72;;;10.48;68.62
15229;BME280;7717;47.792;12.076;2024-03-23T07:34:06;95143.25;;;10.60;67.38
15229;BME280;7717;47.792;12.076;2024-03-23T07:36:32;95133.34;;;10.69;68.51
15229;BME280;7717;47.792;12.076;2024-03-23T07:38:57;95125.63;;;10.67;69.82
15229;BME280;7717;47.792;12.076;2024-03-23T07:41:22;95113.59;;;10.58;66.44
15229;BME280;7717;47.792;12.076;2024-03-23T07:43:48;95084.34;;;10.47;66.90
15229;BME280;7717;47.792;12.076;2024-03-23T07:46:15;95087.03;;;10.60;67.93
15229;BME280;7717;47.792;12.076;2024-03-23T07:48:41;95082.97;;;10.70;67.24
15229;BME280;7717;47.792;12.076;2024-03-23T07:51:08;95080.59;;;10.82;65.23
15229;BME280;7717;47.792;12.076;2024-03-23T07:53:35;95073.31;;;11.04;65.90
15229;BME280;7717;47.792;12.076;2024-03-23T07:56:08;95056.69;;;11.10;64.32
15229;BME280;7717;47.792;12.076;2024-03-23T07:58:34;95074.56;;;11.34;62.57
15229;BME280;7717;47.792;12.076;2024-03-23T08:01:07;95075.75;;;11.51;61.49
15229;BME280;7717;47.792;12.076;2024-03-23T08:03:34;95103.22;;;11.83;61.82
15229;BME280;7717;47.792;12.076;2024-03-23T08:06:15;95094.25;;;11.84;60.57
15229;BME280;7717;47.792;12.076;2024-03-23T08:08:43;95068.41;;;12.06;66.67
15229;BME280;7717;47.792;12.076;2024-03-23T08:11:08;95094.44;;;12.67;64.77
15229;BME280;7717;47.792;12.076;2024-03-23T08:13:35;95095.69;;;13.34;62.34
15229;BME280;7717;47.792;12.076;2024-03-23T08:16:02;95092.06;;;13.28;63.51
15229;BME280;7717;47.792;12.076;2024-03-23T08:18:29;95125.44;;;13.36;61.86
15229;BME280;7717;47.792;12.076;2024-03-23T08:21:01;95132.66;;;13.53;62.48
15229;BME280;7717;47.792;12.076;2024-03-23T08:23:28;95159.22;;;14.21;63.80
15229;BME280;7717;47.792;12.076;2024-03-23T08:26:00;95167.28;;;15.06;60.36
15229;BME280;7717;47.792;12.076;2024-03-23T08:28:26;95177.94;;;14.88;70.14
15229;BME280;7717;47.792;12.076;2024-03-23T08:30:55;95191.34;;;15.11;64.36
15229;BME280;7717;47.792;12.076;2024-03-23T08:33:21;95211.78;;;15.10;69.99
15229;BME280;7717;47.792;12.076;2024-03-23T08:38:20;95219.09;;;14.60;76.33
15229;BME280;7717;47.792;12.076;2024-03-23T08:40:45;95237.69;;;14.42;74.14
15229;BME280;7717;47.792;12.076;2024-03-23T08:43:11;95242.84;;;14.06;64.36
15229;BME280;7717;47.792;12.076;2024-03-23T08:45:36;95246.50;;;14.29;69.04
15229;BME280;7717;47.792;12.076;2024-03-23T08:48:01;95261.47;;;15.28;58.39
15229;BME280;7717;47.792;12.076;2024-03-23T08:50:27;95251.13;;;16.40;58.87
15229;BME280;7717;47.792;12.076;2024-03-23T08:52:52;95243.94;;;16.28;57.25
15229;BME280;7717;47.792;12.076;2024-03-23T08:55:17;95269.53;;;15.88;57.42
15229;BME280;7717;47.792;12.076;2024-03-23T08:57:42;95266.50;;;15.84;58.97
15229;BME280;7717;47.792;12.076;2024-03-23T09:00:09;95238.16;;;15.90;62.53
15229;BME280;7717;47.792;12.076;2024-03-23T09:02:36;95259.69;;;15.59;59.68
15229;BME280;7717;47.792;12.076;2024-03-23T09:05:02;95299.41;;;14.99;58.81
15229;BME280;7717;47.792;12.076;2024-03-23T09:07:30;95323.94;;;15.19;63.72
15229;BME280;7717;47.792;12.076;2024-03-23T09:09:56;95341.75;;;14.76;66.81
15229;BME280;7717;47.792;12.076;2024-03-23T09:12:21;95337.06;;;14.71;63.31
15229;BME280;7717;47.792;12.076;2024-03-23T09:14:46;95337.00;;;14.78;63.01
15229;BME280;7717;47.792;12.076;2024-03-23T09:17:12;95362.94;;;14.82;59.51
15229;BME280;7717;47.792;12.076;2024-03-23T09:19:38;95325.06;;;17.02;58.41
15229;BME280;7717;47.792;12.076;2024-03-23T09:22:05;95373.47;;;16.64;52.43
15229;BME280;7717;47.792;12.076;2024-03-23T09:24:30;95375.53;;;15.55;54.77
15229;BME280;7717;47.792;12.076;2024-03-23T09:26:57;95365.25;;;14.72;57.42
15229;BME280;7717;47.792;12.076;2024-03-23T09:29:22;95386.53;;;14.03;58.30
15229;BME280;7717;47.792;12.076;2024-03-23T09:31:48;95395.63;;;13.82;61.44
15229;BME280;7717;47.792;12.076;2024-03-23T09:34:14;95380.25;;;13.39;61.09
15229;BME280;7717;47.792;12.076;2024-03-23T09:36:40;95404.97;;;13.13;63.95
15229;BME280;7717;47.792;12.076;2024-03-23T09:39:06;95415.13;;;12.90;62.79
15229;BME280;7717;47.792;12.076;2024-03-23T09:41:33;95403.72;;;12.77;64.44
15229;BME280;7717;47.792;12.076;2024-03-23T09:43:58;95401.31;;;12.62;64.52
15229;BME280;7717;47.792;12.076;2024-03-23T09:46:24;95367.09;;;12.41;63.96
15229;BME280;7717;47.792;12.076;2024-03-23T09:48:49;95405.97;;;12.47;65.21
15229;BME280;7717;47.792;12.076;2024-03-23T09:51:14;95410.25;;;12.48;66.48
15229;BME280;7717;47.792;12.076;2024-03-23T09:53:40;95367.47;;;12.44;69.17
15229;BME280;7717;47.792;12.076;2024-03-23T09:56:07;95419.59;;;12.44;68.48
15229;BME280;7717;47.792;12.076;2024-03-23T09:58:33;95418.50;;;12.12;69.49
15229;BME280;7717;47.792;12.076;2024-03-23T10:00:58;95440.09;;;12.09;70.41
15229;BME280;7717;47.792;12.076;2024-03-23T10:03:24;95441.06;;;11.94;70.90
15229;BME280;7717;47.792;12.076;2024-03-23T10:06:00;95448.41;;;11.65;72.57
15229;BME280;7717;47.792;12.076;2024-03-23T10:08:28;95466.00;;;11.51;73.78
15229;BME280;7717;47.792;12.076;2024-03-23T10:10:54;95441.69;;;11.28;75.18
15229;BME280;7717;47.792;12.076;2024-03-23T10:13:26;95476.31;;;11.11;77.74
15229;BME280;7717;47.792;12.076;2024-03-23T10:15:56;95476.88;;;10.79;84.75
15229;BME280;7717;47.792;12.076;2024-03-23T10:18:23;95488.91;;;10.24;91.42
15229;BME280;7717;47.792;12.076;2024-03-23T10:23:35;95508.50;;;9.71;94.79
15229;BME280;7717;47.792;12.076;2024-03-23T10:28:59;95498.88;;;8.82;100.00
15229;BME280;7717;47.792;12.076;2024-03-23T10:31:33;95546.94;;;8.76;100.00
15229;BME280;7717;47.792;12.076;2024-03-23T10:34:00;95570.72;;;8.60;100.00
15229;BME280;7717;47.792;12.076;2024-03-23T10:36:26;95569.09;;;8.20;100.00
15229;BME280;7717;47.792;12.076;2024-03-23T10:38:52;95579.47;;;7.74;100.00
15229;BME280;7717;47.792;12.076;2024-03-23T10:41:18;95597.59;;;7.37;100.00
15229;BME280;7717;47.792;12.076;2024-03-23T10:43:48;95628.94;;;7.22;100.00
15229;BME280;7717;47.792;12.076;2024-03-23T10:46:14;95617.59;;;7.13;100.00
15229;BME280;7717;47.792;12.076;2024-03-23T10:48:39;95624.50;;;7.14;100.00
15229;BME280;7717;47.792;12.076;2024-03-23T10:51:07;95631.72;;;7.29;100.00
15229;BME280;7717;47.792;12.076;2024-03-23T10:53:33;95640.56;;;7.44;100.00
15229;BME280;7717;47.792;12.076;2024-03-23T10:56:00;95610.53;;;7.06;100.00
15229;BME280;7717;47.792;12.076;2024-03-23T10:58:41;95665.28;;;6.93;100.00
15229;BME280;7717;47.792;12.076;2024-03-23T11:01:11;95600.84;;;6.66;100.00
15229;BME280;7717;47.792;12.076;2024-03-23T11:03:38;95643.59;;;6.58;100.00
15229;BME280;7717;47.792;12.076;2024-03-23T11:06:04;95628.50;;;6.44;100.00
15229;BME280;7717;47.792;12.076;2024-03-23T11:08:40;95641.16;;;6.57;100.00
15229;BME280;7717;47.792;12.076;2024-03-23T11:13:38;95631.09;;;6.36;100.00
15229;BME280;7717;47.792;12.076;2024-03-23T11:16:33;95666.66;;;6.47;100.00
15229;BME280;7717;47.792;12.076;2024-03-23T11:19:39;95672.06;;;6.45;100.00
15229;BME280;7717;47.792;12.076;2024-03-23T11:22:05;95664.19;;;6.37;100.00
15229;BME280;7717;47.792;12.076;2024-03-23T11:24:30;95673.50;;;6.39;100.00
15229;BME280;7717;47.792;12.076;2024-03-23T11:26:56;95670.28;;;6.54;100.00
15229;BME280;7717;47.792;12.076;2024-03-23T11:29:25;95662.31;;;6.63;100.00
15229;BME280;7717;47.792;12.076;2024-03-23T11:31:52;95671.81;;;6.72;100.00
15229;BME280;7717;47.792;12.076;2024-03-23T11:34:20;95681.63;;;6.62;100.00
15229;BME280;7717;47.792;12.076;2024-03-23T11:36:46;95683.72;;;6.51;100.00
15229;BME280;7717;47.792;12.076;2024-03-23T11:39:16;95692.03;;;6.46;100.00
15229;BME280;7717;47.792;12.076;2024-03-23T11:42:00;95676.72;;;6.25;100.00
15229;BME280;7717;47.792;12.076;2024-03-23T11:44:26;95681.84;;;6.35;100.00
15229;BME280;7717;47.792;12.076;2024-03-23T11:46:52;95685.78;;;6.31;100.00
15229;BME280;7717;47.792;12.076;2024-03-23T11:49:28;95697.75;;;6.42;100.00
15229;BME280;7717;47.792;12.076;2024-03-23T11:51:55;95690.06;;;6.40;100.00
15229;BME280;7717;47.792;12.076;2024-03-23T11:54:25;95675.59;;;6.28;100.00
15229;BME280;7717;47.792;12.076;2024-03-23T11:56:57;95671.66;;;6.24;100.00
15229;BME280;7717;47.792;12.076;2024-03-23T11:59:49;95668.03;;;6.17;100.00
15229;BME280;7717;47.792;12.076;2024-03-23T12:02:18;95689.75;;;6.09;100.00
15229;BME280;7717;47.792;12.076;2024-03-23T12:04:43;95688.69;;;5.94;100.00
15229;BME280;7717;47.792;12.076;2024-03-23T12:07:16;95692.03;;;5.86;100.00
15229;BME280;7717;47.792;12.076;2024-03-23T12:09:46;95694.53;;;5.88;100.00
15229;BME280;7717;47.792;12.076;2024-03-23T12:12:18;95689.59;;;5.85;100.00
15229;BME280;7717;47.792;12.076;2024-03-23T12:17:27;95691.69;;;5.55;100.00
15229;BME280;7717;47.792;12.076;2024-03-23T12:19:53;95676.75;;;5.48;100.00
15229;BME280;7717;47.792;12.076;2024-03-23T12:22:22;95690.38;;;5.59;100.00
15229;BME280;7717;47.792;12.076;2024-03-23T12:24:48;95691.53;;;5.57;100.00
15229;BME280;7717;47.792;12.076;2024-03-23T12:27:14;95683.00;;;5.55;100.00
15229;BME280;7717;47.792;12.076;2024-03-23T12:29:40;95692.03;;;5.60;100.00
15229;BME280;7717;47.792;12.076;2024-03-23T12:32:06;95687.34;;;5.64;100.00
15229;BME280;7717;47.792;12.076;2024-03-23T12:34:32;95658.34;;;5.40;100.00
15229;BME280;7717;47.792;12.076;2024-03-23T12:36:58;95670.22;;;5.52;100.00
15229;BME280;7717;47.792;12.076;2024-03-23T12:39:23;95669.56;;;5.50;100.00
15229;BME280;7717;47.792;12.076;2024-03-23T12:41:49;95657.34;;;5.58;100.00
15229;BME280;7717;47.792;12.076;2024-03-23T12:44:15;95646.28;;;5.65;100.00
15229;BME280;7717;47.792;12.076;2024-03-23T12:46:41;95621.78;;;5.48;100.00
15229;BME280;7717;47.792;12.076;2024-03-23T12:49:07;95636.59;;;5.65;100.00
15229;BME280;7717;47.792;12.076;2024-03-23T12:51:33;95644.00;;;5.70;100.00
15229;BME280;7717;47.792;12.076;2024-03-23T12:53:59;95645.31;;;5.91;100.00
15229;BME280;7717;47.792;12.076;2024-03-23T12:56:24;95659.50;;;6.15;100.00
15229;BME280;7717;47.792;12.076;2024-03-23T12:58:49;95674.66;;;6.37;100.00
15229;BME280;7717;47.792;12.076;2024-03-23T13:01:19;95666.41;;;6.24;99.57
15229;BME280;7717;47.792;12.076;2024-03-23T13:03:48;95668.66;;;6.19;98.27
15229;BME280;7717;47.792;12.076;2024-03-23T13:06:14;95667.69;;;6.20;100.00
15229;BME280;7717;47.792;12.076;2024-03-23T13:08:40;95654.44;;;6.21;95.77
15229;BME280;7717;47.792;12.076;2024-03-23T13:11:09;95667.25;;;6.32;96.78
15229;BME280;7717;47.792;12.076;2024-03-23T13:13:36;95677.28;;;6.45;94.70
15229;BME280;7717;47.792;12.076;2024-03-23T13:16:02;95687.78;;;6.45;94.91
15229;BME280;7717;47.792;12.076;2024-03-23T13:18:31;95670.81;;;6.57;93.02
15229;BME280;7717;47.792;12.076;2024-03-23T13:20:56;95670.16;;;6.63;94.10
15229;BME280;7717;47.792;12.076;2024-03-23T13:23:22;95659.88;;;6.78;94.50
15229;BME280;7717;47.792;12.076;2024-03-23T13:25:55;95671.25;;;7.11;92.61
15229;BME280;7717;47.792;12.076;2024-03-23T13:28:21;95667.13;;;7.16;90.08
15229;BME280;7717;47.792;12.076;2024-03-23T13:30:54;95689.44;;;7.29;90.58
15229;BME280;7717;47.792;12.076;2024-03-23T13:33:19;95671.25;;;7.27;90.75
15229;BME280;7717;47.792;12.076;2024-03-23T13:35:51;95665.50;;;7.40;90.63
15229;BME280;7717;47.792;12.076;2024-03-23T13:38:17;95676.50;;;7.43;89.01
15229;BME280;7717;47.792;12.076;2024-03-23T13:40:55;95662.72;;;7.33;84.66
15229;BME280;7717;47.792;12.076;2024-03-23T13:43:22;95656.16;;;7.37;84.56
15229;BME280;7717;47.792;12.076;2024-03-23T13:45:51;95634.66;;;7.34;84.79
15229;BME280;7717;47.792;12.076;2024-03-23T13:48:19;95651.38;;;7.33;81.42
15229;BME280;7717;47.792;12.076;2024-03-23T13:50:45;95671.56;;;7.16;83.75
15229;BME280;7717;47.792;12.076;2024-03-23T13:53:12;95665.50;;;7.15;84.56
15229;BME280;7717;47.792;12.076;2024-03-23T13:55:46;95672.44;;;6.66;87.08
15229;BME280;7717;47.792;12.076;2024-03-23T13:58:11;95688.19;;;6.66;86.93
15229;BME280;7717;47.792;12.076;2024-03-23T14:00:37;95706.84;;;6.55;89.63
15229;BME280;7717;47.792;12.076;2024-03-23T14:03:03;95731.59;;;6.27;89.60
15229;BME280;7717;47.792;12.076;2024-03-23T14:05:28;95729.97;;;6.00;92.82
15229;BME280;7717;47.792;12.076;2024-03-23T14:07:53;95723.75;;;6.01;93.53
15229;BME280;7717;47.792;12.076;2024-03-23T14:10:19;95662.34;;;5.95;90.15
15229;BME280;7717;47.792;12.076;2024-03-23T14:12:45;95705.00;;;6.14;91.96